Time;durP1;ratioP1;P1;durP2;ratioP2;P2;SDS_P1;SDS_P2;PMS_P1;PMS_P2;Temp;Humidity;BMP_temperature;BMP_pressure;BME280_temperature;BME280_humidity;BME280_pressure;Samples;Min_cycle;Max_cycle;Signal;HPM_P1;HPM_P2
2023/04/12 00:00:09;;;;;;;6.60;2.05;;;9.80;99.90;;;;;;5030357;28;20026;-75
2023/04/12 00:02:36;;;;;;;3.85;1.85;;;9.80;99.90;;;;;;5032651;28;20142;-75
2023/04/12 00:05:02;;;;;;;8.77;2.08;;;9.80;99.90;;;;;;5019068;28;20041;-74
2023/04/12 00:07:29;;;;;;;5.20;2.42;;;9.80;99.90;;;;;;5030897;28;20028;-74
2023/04/12 00:09:55;;;;;;;7.03;1.90;;;9.80;99.90;;;;;;5026542;28;20479;-74
2023/04/12 00:12:21;;;;;;;8.68;2.80;;;9.80;99.90;;;;;;5027934;28;20049;-74
2023/04/12 00:14:47;;;;;;;4.80;2.10;;;9.80;99.90;;;;;;5027520;28;20096;-75
2023/04/12 00:17:13;;;;;;;8.00;2.72;;;9.90;99.90;;;;;;5026796;28;20041;-75
2023/04/12 00:19:43;;;;;;;8.85;2.80;;;9.90;99.90;;;;;;5032312;28;20029;-75
2023/04/12 00:22:10;;;;;;;8.30;2.50;;;9.70;99.90;;;;;;5032214;28;20025;-74
2023/04/12 00:24:38;;;;;;;5.40;1.90;;;9.70;99.90;;;;;;5029754;28;20037;-74
2023/04/12 00:27:05;;;;;;;6.78;2.70;;;9.50;99.90;;;;;;5027241;28;20034;-76
2023/04/12 00:29:31;;;;;;;10.07;2.78;;;9.50;99.90;;;;;;5027613;28;20030;-74
2023/04/12 00:32:00;;;;;;;6.70;3.25;;;9.40;99.90;;;;;;5021438;28;20060;-74
2023/04/12 00:34:27;;;;;;;6.95;2.00;;;9.30;99.90;;;;;;5031180;28;20064;-74
2023/04/12 00:36:54;;;;;;;6.85;1.92;;;9.30;99.90;;;;;;5035228;28;20032;-74
2023/04/12 00:39:20;;;;;;;4.55;2.20;;;9.20;99.90;;;;;;5030840;28;20029;-74
2023/04/12 00:41:47;;;;;;;8.88;2.40;;;9.20;1.00;;;;;;5031598;28;20053;-74
2023/04/12 00:44:13;;;;;;;5.13;2.20;;;9.10;1.00;;;;;;5020750;28;20123;-74
2023/04/12 00:46:40;;;;;;;7.45;1.98;;;9.10;1.00;;;;;;5015628;28;20030;-74
2023/04/12 00:49:06;;;;;;;7.75;2.30;;;9.10;1.00;;;;;;5023697;28;20029;-74
2023/04/12 00:51:33;;;;;;;6.28;2.13;;;9.10;1.00;;;;;;5027021;28;20049;-74
2023/04/12 00:54:00;;;;;;;6.57;2.35;;;9.10;1.00;;;;;;5025132;28;20037;-74
2023/04/12 00:56:27;;;;;;;7.07;2.45;;;9.10;1.00;;;;;;5027565;28;20046;-74
2023/04/12 00:58:55;;;;;;;8.02;3.00;;;9.10;1.00;;;;;;5020731;28;20040;-74
2023/04/12 01:01:22;;;;;;;7.90;1.92;;;9.10;1.00;;;;;;5025425;28;20029;-74
2023/04/12 01:03:50;;;;;;;10.68;2.22;;;9.10;1.00;;;;;;5021418;28;20053;-74
2023/04/12 01:06:38;;;;;;;9.57;2.40;;;9.10;1.00;;;;;;5030530;28;20045;-74
2023/04/12 01:09:19;;;;;;;10.32;3.67;;;9.20;1.00;;;;;;5022865;28;20037;-74
2023/04/12 01:12:19;;;;;;;4.78;1.65;;;9.20;1.00;;;;;;5020779;28;20498;-74
2023/04/12 01:14:51;;;;;;;11.52;2.47;;;9.10;1.00;;;;;;5023897;28;20045;-74
2023/04/12 01:17:26;;;;;;;7.88;2.00;;;9.00;1.00;;;;;;5028922;28;20041;-73
2023/04/12 01:19:56;;;;;;;5.18;1.98;;;9.00;1.00;;;;;;5033583;28;20033;-74
2023/04/12 01:22:45;;;;;;;4.88;1.67;;;8.90;1.00;;;;;;5031275;28;20037;-75
2023/04/12 01:25:39;;;;;;;8.57;1.92;;;8.90;1.00;;;;;;5041732;28;20046;-74
2023/04/12 01:28:11;;;;;;;10.02;2.03;;;8.80;1.00;;;;;;5025630;28;20034;-74
2023/04/12 01:30:38;;;;;;;9.43;1.75;;;8.70;1.00;;;;;;5032614;28;20053;-74
2023/04/12 01:33:06;;;;;;;6.90;1.70;;;8.60;1.00;;;;;;5032316;28;20109;-74
2023/04/12 01:35:32;;;;;;;4.25;1.73;;;8.60;1.00;;;;;;5035147;28;20133;-74
2023/04/12 01:37:59;;;;;;;4.57;1.55;;;8.50;1.00;;;;;;5026272;28;20042;-75
2023/04/12 01:40:27;;;;;;;4.72;1.50;;;8.50;1.00;;;;;;5029372;28;20033;-74
2023/04/12 01:43:04;;;;;;;3.25;1.85;;;8.40;1.00;;;;;;5022600;28;20079;-75
2023/04/12 01:45:33;;;;;;;4.00;2.05;;;8.30;1.00;;;;;;5033146;28;20490;-74
2023/04/12 01:48:01;;;;;;;7.05;2.03;;;8.30;1.00;;;;;;5030290;28;20471;-74
2023/04/12 01:50:39;;;;;;;9.85;3.20;;;8.30;1.00;;;;;;5033402;28;20056;-74
2023/04/12 01:53:21;;;;;;;8.10;2.42;;;8.30;1.00;;;;;;5031542;28;20056;-74
2023/04/12 01:55:49;;;;;;;5.82;2.17;;;8.20;1.00;;;;;;5034712;28;20045;-74
2023/04/12 01:58:20;;;;;;;4.80;1.70;;;8.10;1.00;;;;;;5023512;28;20041;-75
2023/04/12 02:00:49;;;;;;;4.05;1.80;;;7.90;1.00;;;;;;5031078;28;20026;-74
2023/04/12 02:03:16;;;;;;;12.43;3.30;;;7.80;11.30;;;;;;5031569;28;20037;-74
2023/04/12 02:05:42;;;;;;;5.55;2.25;;;7.80;33.70;;;;;;5044527;28;20049;-74
2023/04/12 02:08:10;;;;;;;5.05;2.03;;;7.70;38.60;;;;;;5027425;28;20046;-73
2023/04/12 02:10:38;;;;;;;9.20;2.25;;;7.70;52.60;;;;;;5030121;28;20044;-73
2023/04/12 02:13:05;;;;;;;7.22;1.90;;;7.70;65.10;;;;;;5033045;28;20030;-73
2023/04/12 02:15:32;;;;;;;6.10;2.15;;;7.70;87.20;;;;;;5027550;28;20052;-73
2023/04/12 02:17:59;;;;;;;7.40;2.10;;;7.70;92.30;;;;;;5023397;28;20046;-73
2023/04/12 02:20:25;;;;;;;4.70;1.85;;;7.70;90.60;;;;;;5030562;28;20046;-73
2023/04/12 02:22:52;;;;;;;6.82;1.52;;;7.80;94.50;;;;;;5026293;28;20034;-73
2023/04/12 02:25:19;;;;;;;5.45;1.95;;;7.80;98.60;;;;;;5030112;28;20402;-73
2023/04/12 02:27:45;;;;;;;6.40;2.03;;;7.80;99.90;;;;;;5037043;28;20037;-73
2023/04/12 02:30:13;;;;;;;9.90;2.00;;;7.80;99.90;;;;;;5031955;28;20476;-73
2023/04/12 02:32:44;;;;;;;8.02;2.20;;;7.70;99.90;;;;;;5039839;28;20053;-73
2023/04/12 02:35:18;;;;;;;14.55;3.75;;;7.70;99.90;;;;;;5031954;28;20047;-74
2023/04/12 02:37:50;;;;;;;10.77;3.42;;;7.70;99.90;;;;;;5026873;28;20045;-74
2023/04/12 02:40:16;;;;;;;5.75;2.60;;;7.60;99.90;;;;;;5033859;28;20045;-73
2023/04/12 02:42:43;;;;;;;14.93;4.05;;;7.70;99.90;;;;;;5034659;28;20041;-73
2023/04/12 02:45:11;;;;;;;12.80;4.10;;;7.70;99.90;;;;;;5034022;28;20050;-74
2023/04/12 02:47:40;;;;;;;8.23;2.90;;;7.70;99.90;;;;;;5032001;28;20061;-73
2023/04/12 02:50:08;;;;;;;6.53;2.75;;;7.60;99.90;;;;;;5030004;28;20046;-74
2023/04/12 02:52:45;;;;;;;8.10;4.00;;;7.60;99.90;;;;;;5029808;28;20033;-73
2023/04/12 02:55:12;;;;;;;10.55;3.35;;;7.60;99.90;;;;;;5030904;28;20411;-73
2023/04/12 02:57:38;;;;;;;7.10;2.80;;;7.60;99.90;;;;;;5033617;28;20045;-74
2023/04/12 03:00:12;;;;;;;8.95;3.47;;;7.50;99.90;;;;;;5032249;28;20049;-74
2023/04/12 03:02:50;;;;;;;6.75;3.22;;;7.50;99.90;;;;;;5037351;28;20052;-74
2023/04/12 03:05:21;;;;;;;5.47;3.33;;;7.60;99.90;;;;;;5028415;28;20505;-73
2023/04/12 03:07:48;;;;;;;6.95;3.15;;;7.50;99.90;;;;;;5031429;28;20037;-74
2023/04/12 03:10:18;;;;;;;7.55;3.38;;;7.50;99.90;;;;;;5026870;28;20041;-74
2023/04/12 03:12:50;;;;;;;11.30;3.33;;;7.50;99.90;;;;;;5022137;28;20468;-73
2023/04/12 03:15:18;;;;;;;9.27;3.20;;;7.50;99.90;;;;;;5031546;28;20056;-73
2023/04/12 03:17:47;;;;;;;10.65;3.72;;;7.50;99.90;;;;;;5031797;28;20497;-73
2023/04/12 03:20:16;;;;;;;6.45;3.08;;;7.60;99.90;;;;;;5031153;28;20578;-73
2023/04/12 03:22:48;;;;;;;12.98;3.35;;;7.50;99.90;;;;;;5032459;28;20048;-72
2023/04/12 03:25:17;;;;;;;7.32;2.97;;;7.50;99.90;;;;;;5025794;28;20728;-72
2023/04/12 03:27:48;;;;;;;9.00;3.42;;;7.50;99.90;;;;;;5030968;28;20041;-73
2023/04/12 03:30:18;;;;;;;7.40;2.83;;;7.50;99.90;;;;;;5022466;28;20044;-73
2023/04/12 03:32:45;;;;;;;6.50;2.35;;;7.50;99.90;;;;;;5028903;28;20053;-73
2023/04/12 03:35:12;;;;;;;7.72;2.88;;;7.50;99.90;;;;;;5027056;28;20041;-75
2023/04/12 03:37:42;;;;;;;6.93;2.70;;;7.40;99.90;;;;;;5025270;28;20045;-73
2023/04/12 03:40:10;;;;;;;4.45;2.25;;;7.40;99.90;;;;;;5010971;28;20038;-73
2023/04/12 03:42:38;;;;;;;10.02;3.28;;;7.40;99.90;;;;;;5035635;28;20046;-73
2023/04/12 03:45:11;;;;;;;5.90;2.30;;;7.40;99.90;;;;;;5026424;28;20144;-73
2023/04/12 03:47:40;;;;;;;5.25;2.40;;;7.40;99.90;;;;;;5023667;28;20510;-72
2023/04/12 03:50:07;;;;;;;9.95;2.50;;;7.40;99.90;;;;;;5026342;28;20045;-72
2023/04/12 03:52:35;;;;;;;5.82;1.92;;;7.40;99.90;;;;;;5028225;28;20383;-72
2023/04/12 03:55:06;;;;;;;6.35;2.25;;;7.40;99.90;;;;;;5027966;28;20482;-72
2023/04/12 03:57:32;;;;;;;8.25;1.85;;;7.40;99.90;;;;;;5028847;28;20042;-72
2023/04/12 03:59:59;;;;;;;11.75;2.28;;;7.40;99.90;;;;;;5029225;28;20048;-73
2023/04/12 04:02:33;;;;;;;7.68;2.60;;;7.40;99.90;;;;;;5038261;28;20390;-72
2023/04/12 04:05:01;;;;;;;7.72;2.35;;;7.40;99.90;;;;;;5011695;28;20491;-72
2023/04/12 04:07:32;;;;;;;7.80;2.40;;;7.40;99.90;;;;;;5029906;28;20042;-73
2023/04/12 04:09:59;;;;;;;5.63;2.15;;;7.40;99.90;;;;;;5025961;28;20049;-73
2023/04/12 04:12:31;;;;;;;6.32;2.05;;;7.40;99.90;;;;;;5032115;28;20045;-73
2023/04/12 04:14:57;;;;;;;5.28;2.30;;;7.40;99.90;;;;;;5034376;28;20398;-77
2023/04/12 04:17:31;;;;;;;5.40;2.17;;;7.40;99.90;;;;;;5029117;28;20049;-73
2023/04/12 04:19:57;;;;;;;5.20;2.20;;;7.40;99.90;;;;;;5024552;28;20045;-72
2023/04/12 04:22:24;;;;;;;3.95;1.77;;;7.40;99.90;;;;;;5026214;28;20042;-72
2023/04/12 04:24:52;;;;;;;4.45;2.05;;;7.40;99.90;;;;;;5032995;28;20085;-72
2023/04/12 04:27:19;;;;;;;9.80;4.82;;;7.40;99.90;;;;;;5030188;28;20037;-73
2023/04/12 04:29:46;;;;;;;10.82;2.78;;;7.40;99.90;;;;;;5031152;28;20053;-73
2023/04/12 04:32:15;;;;;;;6.22;2.60;;;7.40;99.90;;;;;;5028771;28;20046;-73
2023/04/12 04:34:43;;;;;;;6.35;2.47;;;7.30;99.90;;;;;;5027285;28;20399;-73
2023/04/12 04:37:14;;;;;;;6.38;2.83;;;7.30;99.90;;;;;;5034649;28;20041;-74
2023/04/12 04:39:43;;;;;;;5.38;2.28;;;7.40;99.90;;;;;;5030827;28;20042;-72
2023/04/12 04:42:10;;;;;;;6.00;2.67;;;7.30;99.90;;;;;;5039465;28;20505;-74
2023/04/12 04:44:39;;;;;;;7.63;2.90;;;7.40;99.90;;;;;;5030414;28;20394;-74
2023/04/12 04:47:08;;;;;;;5.60;2.60;;;7.30;99.90;;;;;;5020209;28;20037;-74
2023/04/12 04:49:37;;;;;;;9.65;2.63;;;7.30;99.90;;;;;;5031678;28;20475;-73
2023/04/12 04:52:09;;;;;;;8.73;2.38;;;7.40;99.90;;;;;;5009450;28;20049;-73
2023/04/12 04:54:36;;;;;;;4.53;2.28;;;7.30;99.90;;;;;;5027428;28;20056;-74
2023/04/12 04:57:06;;;;;;;4.93;2.53;;;7.30;99.90;;;;;;5024530;28;20386;-74
2023/04/12 04:59:33;;;;;;;;;;;7.40;99.90;;;;;;5038392;28;20502;-73
2023/04/12 05:02:11;;;;;;;6.30;2.95;;;7.30;99.90;;;;;;5018429;28;19916;-73
2023/04/12 05:04:38;;;;;;;7.13;3.00;;;7.40;99.90;;;;;;5031553;28;20053;-73
2023/04/12 05:07:04;;;;;;;10.02;3.95;;;7.40;99.90;;;;;;5029134;28;20407;-73
2023/04/12 05:09:31;;;;;;;5.35;2.85;;;7.40;99.90;;;;;;5029854;28;20399;-73
2023/04/12 05:11:57;;;;;;;5.95;2.92;;;7.40;99.90;;;;;;5030485;28;20041;-72
2023/04/12 05:14:25;;;;;;;3.47;2.22;;;7.40;99.90;;;;;;5029500;28;20042;-73
2023/04/12 05:16:51;;;;;;;6.38;3.00;;;7.30;99.90;;;;;;5032466;28;20056;-73
2023/04/12 05:19:18;;;;;;;7.55;2.72;;;7.40;99.90;;;;;;5022885;28;20045;-73
2023/04/12 05:21:44;;;;;;;10.18;3.80;;;7.40;99.90;;;;;;5026667;28;20037;-73
2023/04/12 05:24:11;;;;;;;3.88;2.28;;;7.40;99.90;;;;;;5028857;28;20064;-73
2023/04/12 05:26:38;;;;;;;5.18;2.45;;;7.40;99.90;;;;;;5026286;28;20037;-73
2023/04/12 05:29:10;;;;;;;8.00;3.50;;;7.40;99.90;;;;;;5023146;28;20045;-73
2023/04/12 05:31:37;;;;;;;6.18;2.78;;;7.40;99.90;;;;;;5020648;28;20064;-74
2023/04/12 05:34:06;;;;;;;6.90;2.78;;;7.40;99.90;;;;;;5020518;28;20054;-74
2023/04/12 05:36:37;;;;;;;5.18;2.72;;;7.40;99.90;;;;;;5035496;28;20061;-74
2023/04/12 05:39:03;;;;;;;7.20;2.78;;;7.40;99.90;;;;;;5039531;28;20064;-74
2023/04/12 05:41:31;;;;;;;6.00;2.78;;;7.40;99.90;;;;;;5023710;28;20050;-73
2023/04/12 05:43:57;;;;;;;10.95;3.47;;;7.40;99.90;;;;;;5030451;28;20033;-74
2023/04/12 05:46:24;;;;;;;6.45;3.03;;;7.40;99.90;;;;;;5024130;28;20046;-74
2023/04/12 05:48:50;;;;;;;6.57;2.42;;;7.40;99.90;;;;;;5040236;28;20045;-74
2023/04/12 05:51:16;;;;;;;4.15;2.63;;;7.40;99.90;;;;;;5024470;28;20044;-73
2023/04/12 05:53:43;;;;;;;8.05;3.00;;;7.50;99.90;;;;;;5030675;28;20033;-73
2023/04/12 05:56:11;;;;;;;10.63;3.72;;;7.50;99.90;;;;;;5022264;28;20048;-73
2023/04/12 05:58:38;;;;;;;8.38;4.05;;;7.50;99.90;;;;;;5035918;28;20041;-73
2023/04/12 06:01:04;;;;;;;7.13;3.47;;;7.50;99.90;;;;;;5029022;28;20394;-73
2023/04/12 06:03:32;;;;;;;5.18;2.72;;;7.50;99.90;;;;;;5028732;28;20386;-74
2023/04/12 06:06:06;;;;;;;5.28;3.25;;;7.50;99.90;;;;;;5016570;28;20058;-74
2023/04/12 06:08:33;;;;;;;7.10;3.78;;;7.60;99.90;;;;;;5033105;28;20046;-74
2023/04/12 06:11:00;;;;;;;6.32;2.92;;;7.60;99.90;;;;;;5030792;28;20479;-73
2023/04/12 06:13:26;;;;;;;6.45;2.70;;;7.60;99.90;;;;;;5024270;28;20037;-74
2023/04/12 06:15:53;;;;;;;4.45;2.53;;;7.60;99.90;;;;;;5025172;28;20064;-74
2023/04/12 06:18:20;;;;;;;5.15;2.88;;;7.60;99.90;;;;;;5027424;28;20064;-73
2023/04/12 06:20:46;;;;;;;6.72;3.95;;;7.70;99.90;;;;;;5035174;28;20045;-73
2023/04/12 06:23:12;;;;;;;5.35;2.70;;;7.70;99.90;;;;;;5031246;28;20029;-73
2023/04/12 06:25:38;;;;;;;8.75;4.60;;;7.80;99.90;;;;;;5036900;28;20046;-74
2023/04/12 06:28:05;;;;;;;5.80;3.08;;;7.80;99.90;;;;;;5033024;28;20416;-76
2023/04/12 06:30:37;;;;;;;7.88;2.85;;;7.80;99.90;;;;;;5024893;28;20175;-73
2023/04/12 06:33:04;;;;;;;5.97;3.40;;;7.80;99.90;;;;;;5034076;28;20391;-73
2023/04/12 06:35:31;;;;;;;5.28;2.72;;;7.80;99.90;;;;;;5027524;28;20057;-77
2023/04/12 06:37:57;;;;;;;7.43;3.60;;;7.90;99.90;;;;;;5024914;28;20050;-72
2023/04/12 06:40:23;;;;;;;5.47;3.38;;;7.90;99.90;;;;;;5024373;28;20026;-73
2023/04/12 06:42:49;;;;;;;9.02;3.50;;;8.00;99.90;;;;;;5031197;28;20057;-72
2023/04/12 06:45:21;;;;;;;6.32;3.35;;;8.00;99.90;;;;;;5038555;28;20049;-72
2023/04/12 06:47:47;;;;;;;5.40;3.47;;;8.00;99.90;;;;;;5029229;28;20033;-72
2023/04/12 06:50:13;;;;;;;6.90;2.80;;;8.10;99.90;;;;;;5032112;28;20091;-72
2023/04/12 06:52:40;;;;;;;6.38;3.10;;;8.10;99.90;;;;;;5034379;28;20101;-71
2023/04/12 06:55:06;;;;;;;6.68;3.13;;;8.10;99.90;;;;;;5032685;28;20037;-74
2023/04/12 06:57:32;;;;;;;7.20;3.00;;;8.10;99.90;;;;;;5016896;28;20030;-73
2023/04/12 06:59:59;;;;;;;7.10;2.78;;;8.10;99.90;;;;;;5033144;28;20033;-73
2023/04/12 07:02:25;;;;;;;5.93;3.90;;;8.10;99.90;;;;;;5028666;28;20026;-72
2023/04/12 07:04:55;;;;;;;10.15;3.17;;;8.10;99.90;;;;;;5031976;28;20483;-72
2023/04/12 07:07:21;;;;;;;4.55;2.63;;;8.20;99.90;;;;;;5030865;28;20390;-72
2023/04/12 07:09:47;;;;;;;6.05;2.30;;;8.30;99.90;;;;;;5031871;28;20078;-73
2023/04/12 07:12:13;;;;;;;5.57;3.63;;;8.30;99.90;;;;;;5033031;28;20388;-73
2023/04/12 07:14:40;;;;;;;6.65;3.10;;;8.30;99.90;;;;;;5029578;28;20029;-73
2023/04/12 07:17:06;;;;;;;9.40;3.70;;;8.40;99.90;;;;;;5023947;28;20033;-73
2023/04/12 07:19:32;;;;;;;5.30;3.20;;;8.50;99.90;;;;;;5032846;28;20044;-73
2023/04/12 07:21:58;;;;;;;8.30;2.97;;;8.50;99.90;;;;;;5032566;28;20037;-72
2023/04/12 07:24:24;;;;;;;5.35;2.10;;;8.60;99.90;;;;;;5032469;28;20036;-73
2023/04/12 07:26:53;;;;;;;6.30;2.63;;;8.60;99.90;;;;;;5030544;28;20041;-73
2023/04/12 07:29:20;;;;;;;5.93;3.08;;;8.60;99.90;;;;;;5031776;28;20034;-73
2023/04/12 07:31:46;;;;;;;6.47;3.30;;;8.60;99.90;;;;;;5028361;28;20041;-73
2023/04/12 07:34:12;;;;;;;6.55;2.83;;;8.60;99.90;;;;;;5029424;28;20033;-73
2023/04/12 07:36:38;;;;;;;6.78;3.33;;;8.60;99.90;;;;;;5029337;28;20029;-73
2023/04/12 07:39:05;;;;;;;5.30;3.03;;;8.60;99.90;;;;;;5031557;28;20383;-73
2023/04/12 07:41:31;;;;;;;6.50;3.88;;;8.60;99.90;;;;;;5032160;28;20083;-73
2023/04/12 07:43:57;;;;;;;4.15;2.40;;;8.70;99.90;;;;;;5032471;28;20040;-73
2023/04/12 07:46:23;;;;;;;8.05;2.60;;;8.70;99.90;;;;;;5030935;28;20034;-73
2023/04/12 07:48:50;;;;;;;6.82;2.97;;;8.70;99.90;;;;;;5027893;28;20042;-74
2023/04/12 07:51:16;;;;;;;3.92;2.47;;;8.80;99.90;;;;;;5031333;28;20405;-72
2023/04/12 07:53:47;;;;;;;10.45;3.28;;;8.80;99.90;;;;;;5024260;28;20045;-73
2023/04/12 07:56:14;;;;;;;5.07;2.88;;;8.80;99.90;;;;;;5022653;28;20034;-73
2023/04/12 07:58:40;;;;;;;3.95;2.17;;;8.90;99.90;;;;;;5035629;28;20033;-75
2023/04/12 08:01:06;;;;;;;3.63;1.85;;;8.90;99.90;;;;;;5035263;28;20040;-73
2023/04/12 08:03:32;;;;;;;4.07;2.50;;;8.90;99.90;;;;;;5032158;28;20029;-73
2023/04/12 08:05:58;;;;;;;6.13;2.08;;;8.90;99.90;;;;;;5030405;28;20057;-73
2023/04/12 08:08:25;;;;;;;6.20;2.45;;;8.90;99.90;;;;;;5032146;28;20092;-73
2023/04/12 08:10:51;;;;;;;4.78;2.28;;;8.90;99.90;;;;;;5032226;28;20123;-73
2023/04/12 08:13:18;;;;;;;5.65;2.38;;;8.90;99.90;;;;;;5022767;28;20041;-73
2023/04/12 08:15:46;;;;;;;4.78;2.70;;;9.00;99.90;;;;;;5027775;28;20041;-73
2023/04/12 08:18:12;;;;;;;3.75;2.10;;;9.00;99.90;;;;;;5031394;28;20029;-73
2023/04/12 08:20:43;;;;;;;6.60;3.00;;;9.10;99.90;;;;;;5023320;28;20053;-72
2023/04/12 08:23:10;;;;;;;4.88;1.75;;;9.20;99.90;;;;;;5033115;28;20045;-73
2023/04/12 08:25:37;;;;;;;7.70;2.80;;;9.20;99.90;;;;;;5026863;28;20399;-74
2023/04/12 08:28:06;;;;;;;4.70;2.80;;;9.40;99.90;;;;;;5025898;28;20060;-73
2023/04/12 08:30:32;;;;;;;4.72;3.10;;;9.50;99.90;;;;;;5023939;28;20029;-73
2023/04/12 08:32:58;;;;;;;3.75;2.30;;;9.50;99.90;;;;;;5018561;28;20045;-73
2023/04/12 08:35:24;;;;;;;6.18;3.55;;;9.50;99.90;;;;;;5025596;28;20040;-73
2023/04/12 08:37:51;;;;;;;5.50;2.97;;;9.50;99.90;;;;;;5030086;28;20041;-73
2023/04/12 08:40:17;;;;;;;7.97;2.25;;;9.60;99.90;;;;;;5029936;28;20121;-75
2023/04/12 08:42:43;;;;;;;5.68;3.03;;;9.60;99.90;;;;;;5028893;28;20053;-73
2023/04/12 08:45:11;;;;;;;4.80;2.25;;;9.70;99.90;;;;;;5031266;28;20044;-73
2023/04/12 08:47:42;;;;;;;5.28;2.45;;;9.80;99.90;;;;;;5030431;28;20029;-73
2023/04/12 08:50:12;;;;;;;6.22;2.55;;;9.80;99.90;;;;;;5031378;28;20049;-72
2023/04/12 08:52:39;;;;;;;6.17;3.57;;;9.90;99.90;;;;;;5030239;28;20408;-73
2023/04/12 08:55:07;;;;;;;4.28;2.42;;;9.80;99.90;;;;;;5030910;28;20037;-72
2023/04/12 08:57:35;;;;;;;7.15;2.83;;;9.80;99.90;;;;;;5022984;28;20040;-73
2023/04/12 09:00:03;;;;;;;5.68;2.33;;;9.90;99.90;;;;;;5031644;28;20037;-73
2023/04/12 09:02:29;;;;;;;3.55;2.30;;;10.00;99.90;;;;;;5030270;28;20459;-73
2023/04/12 09:04:55;;;;;;;4.63;1.95;;;10.10;99.90;;;;;;5030566;28;20025;-73
2023/04/12 09:07:22;;;;;;;5.70;3.33;;;10.20;99.90;;;;;;5028366;28;20386;-73
2023/04/12 09:09:49;;;;;;;5.13;2.53;;;10.20;99.90;;;;;;5030148;28;20033;-73
2023/04/12 09:12:16;;;;;;;5.10;2.90;;;10.10;99.90;;;;;;5029167;28;20030;-73
2023/04/12 09:14:43;;;;;;;5.25;2.53;;;10.10;99.90;;;;;;5028300;28;20041;-73
2023/04/12 09:17:23;;;;;;;6.97;2.85;;;10.10;99.90;;;;;;5029325;28;20483;-74
2023/04/12 09:19:50;;;;;;;9.13;2.67;;;10.10;99.90;;;;;;5029942;28;20033;-73
2023/04/12 09:22:16;;;;;;;5.40;2.75;;;10.20;99.90;;;;;;5030357;28;20045;-73
2023/04/12 09:24:48;;;;;;;6.72;3.17;;;10.30;99.90;;;;;;5028450;28;20037;-73
2023/04/12 09:27:15;;;;;;;6.88;2.70;;;10.30;99.90;;;;;;5029074;28;20052;-73
2023/04/12 09:29:44;;;;;;;4.78;2.50;;;10.40;99.90;;;;;;5027470;28;20025;-73
2023/04/12 09:32:10;;;;;;;8.75;3.58;;;10.40;69.70;;;;;;5031324;28;20038;-73
2023/04/12 09:34:37;;;;;;;5.72;3.40;;;10.40;70.80;;;;;;5030524;28;20034;-73
2023/04/12 09:37:15;;;;;;;4.13;2.50;;;10.50;86.30;;;;;;5029213;28;20021;-73
2023/04/12 09:39:41;;;;;;;5.63;3.35;;;10.60;78.40;;;;;;5029168;28;20040;-72
2023/04/12 09:42:10;;;;;;;7.13;2.85;;;10.70;77.40;;;;;;5031383;28;20060;-73
2023/04/12 09:44:36;;;;;;;7.13;3.08;;;10.80;49.90;;;;;;5034255;28;20041;-73
2023/04/12 09:47:04;;;;;;;8.18;2.70;;;10.80;26.20;;;;;;5029342;28;20402;-73
2023/04/12 09:49:38;;;;;;;8.48;3.00;;;10.80;25.80;;;;;;5031507;28;20029;-73
2023/04/12 09:52:06;;;;;;;5.95;2.65;;;10.90;29.00;;;;;;5032253;28;20036;-73
2023/04/12 09:54:49;;;;;;;7.45;3.08;;;10.90;19.90;;;;;;5034963;28;20253;-73
2023/04/12 09:57:21;;;;;;;8.25;3.25;;;11.00;22.30;;;;;;5032397;28;20127;-73
2023/04/12 09:59:51;;;;;;;5.00;2.70;;;11.00;18.90;;;;;;5031903;28;20037;-73
2023/04/12 10:02:22;;;;;;;4.75;2.58;;;11.10;19.30;;;;;;5031723;28;20030;-74
2023/04/12 10:04:48;;;;;;;6.70;2.72;;;11.00;7.50;;;;;;5034728;28;20041;-73
2023/04/12 10:07:15;;;;;;;3.60;2.83;;;11.10;6.50;;;;;;5030661;28;20080;-74
2023/04/12 10:09:41;;;;;;;7.93;3.42;;;11.00;7.90;;;;;;5033688;28;20140;-73
2023/04/12 10:12:08;;;;;;;7.13;2.92;;;11.00;8.10;;;;;;5033797;28;20037;-73
2023/04/12 10:14:34;;;;;;;8.25;3.58;;;11.00;21.30;;;;;;5022946;28;20383;-74
2023/04/12 10:17:03;;;;;;;5.57;2.80;;;11.00;25.50;;;;;;5032831;28;20029;-74
2023/04/12 10:19:32;;;;;;;6.00;2.70;;;11.10;20.40;;;;;;5028649;28;20029;-73
2023/04/12 10:21:59;;;;;;;9.55;3.65;;;11.10;12.90;;;;;;5034432;28;20378;-73
2023/04/12 10:24:27;;;;;;;10.70;3.20;;;11.10;1.80;;;;;;5033544;28;20029;-73
2023/04/12 10:26:54;;;;;;;7.35;3.50;;;11.10;1.60;;;;;;5032615;28;20419;-74
2023/04/12 10:29:28;;;;;;;7.80;3.45;;;11.10;5.90;;;;;;5031031;28;20460;-74
2023/04/12 10:31:57;;;;;;;7.93;3.22;;;11.20;2.90;;;;;;5031541;28;20487;-73
2023/04/12 10:34:27;;;;;;;5.68;3.42;;;11.40;17.60;;;;;;5030315;28;20033;-74
2023/04/12 10:36:58;;;;;;;10.50;3.38;;;11.40;7.30;;;;;;5032106;28;20049;-74
2023/04/12 10:39:42;;;;;;;7.88;2.63;;;11.40;10.90;;;;;;5033489;28;20044;-73
2023/04/12 10:42:23;;;;;;;6.80;2.95;;;11.40;2.70;;;;;;5032506;28;20045;-73
2023/04/12 10:45:08;;;;;;;;;;;11.60;1.70;;;;;;5026284;28;20467;-73
2023/04/12 10:47:53;;;;;;;6.82;3.42;;;11.60;1.00;;;;;;5028412;28;19932;-74
2023/04/12 10:50:23;;;;;;;4.85;3.25;;;11.70;1.00;;;;;;5030179;28;20037;-73
2023/04/12 10:53:11;;;;;;;6.75;2.58;;;11.80;1.00;;;;;;5029610;28;20391;-74
2023/04/12 10:55:38;;;;;;;9.07;3.45;;;11.80;1.00;;;;;;5023174;28;20040;-73
2023/04/12 10:58:04;;;;;;;7.00;2.63;;;11.80;1.00;;;;;;5031368;28;20045;-73
2023/04/12 11:00:55;;;;;;;6.03;2.55;;;11.80;1.00;;;;;;5031992;28;20478;-74
2023/04/12 11:03:21;;;;;;;;;;;11.70;1.00;;;;;;5026189;28;20415;-74
2023/04/12 11:06:02;;;;;;;7.03;3.05;;;11.70;1.00;;;;;;5031976;28;19924;-74
2023/04/12 11:08:47;;;;;;;5.38;2.55;;;11.80;1.00;;;;;;5033454;28;20045;-74
2023/04/12 11:11:26;;;;;;;5.60;2.63;;;11.70;1.00;;;;;;5032580;28;20036;-74
2023/04/12 11:13:58;;;;;;;3.47;2.03;;;11.60;1.00;;;;;;5033688;28;20040;-74
2023/04/12 11:16:24;;;;;;;4.70;2.53;;;11.70;1.00;;;;;;5030826;28;20041;-74
2023/04/12 11:18:52;;;;;;;3.47;2.05;;;11.80;1.00;;;;;;5032361;28;20034;-76
2023/04/12 11:21:19;;;;;;;6.43;2.90;;;11.80;1.00;;;;;;5031951;28;20041;-74
2023/04/12 11:23:46;;;;;;;4.22;2.67;;;11.80;1.00;;;;;;5028453;28;20034;-74
2023/04/12 11:26:19;;;;;;;3.85;2.28;;;11.80;1.00;;;;;;5030832;28;20498;-74
2023/04/12 11:28:47;;;;;;;8.45;2.38;;;11.90;1.00;;;;;;5033691;28;20045;-74
2023/04/12 11:31:13;;;;;;;7.22;2.22;;;12.00;1.00;;;;;;5030803;28;20025;-74
2023/04/12 11:33:40;;;;;;;8.52;2.60;;;12.00;1.00;;;;;;5032715;28;20379;-73
2023/04/12 11:36:12;;;;;;;5.70;2.33;;;12.00;1.00;;;;;;5028653;28;20057;-74
2023/04/12 11:38:39;;;;;;;5.00;2.20;;;12.10;1.00;;;;;;5029437;28;20045;-74
2023/04/12 11:41:07;;;;;;;4.05;1.75;;;12.10;1.00;;;;;;5034917;28;20037;-75
2023/04/12 11:43:37;;;;;;;5.53;2.13;;;12.20;1.00;;;;;;5030273;28;20382;-75
2023/04/12 11:46:03;;;;;;;5.03;2.17;;;12.30;1.00;;;;;;5027610;28;20038;-74
2023/04/12 11:48:31;;;;;;;3.38;1.83;;;12.40;1.00;;;;;;5031347;28;20032;-75
2023/04/12 11:50:57;;;;;;;3.60;1.73;;;12.30;1.00;;;;;;5028138;28;20030;-75
2023/04/12 11:53:28;;;;;;;7.28;2.08;;;12.20;1.00;;;;;;5031910;28;20037;-76
2023/04/12 11:55:57;;;;;;;3.38;1.65;;;12.30;1.00;;;;;;5029592;28;20040;-75
2023/04/12 11:58:25;;;;;;;5.03;2.25;;;12.30;1.00;;;;;;5030611;28;20033;-75
2023/04/12 12:00:52;;;;;;;5.55;2.10;;;12.50;1.00;;;;;;5032414;28;20485;-75
2023/04/12 12:03:19;;;;;;;6.57;2.22;;;12.60;1.00;;;;;;5026759;28;20034;-82
2023/04/12 12:05:46;;;;;;;9.07;1.92;;;12.60;1.00;;;;;;5030645;28;20383;-74
2023/04/12 12:08:16;;;;;;;3.65;1.77;;;12.60;1.00;;;;;;5025057;28;20041;-75
2023/04/12 12:10:42;;;;;;;8.48;2.90;;;12.60;1.00;;;;;;5031202;28;20416;-75
2023/04/12 12:13:10;;;;;;;4.95;2.03;;;12.50;1.00;;;;;;5028081;28;20105;-74
2023/04/12 12:15:36;;;;;;;4.40;1.83;;;12.60;1.00;;;;;;5030514;28;20050;-74
2023/04/12 12:18:06;;;;;;;4.95;1.70;;;12.70;1.00;;;;;;5029295;28;20037;-74
2023/04/12 12:20:38;;;;;;;5.15;2.33;;;12.90;1.00;;;;;;5030020;28;20138;-75
2023/04/12 12:23:04;;;;;;;4.15;2.28;;;13.10;1.00;;;;;;5031520;28;20044;-74
2023/04/12 12:25:31;;;;;;;2.53;1.42;;;12.90;1.00;;;;;;5029210;28;20403;-76
2023/04/12 12:27:57;;;;;;;6.30;2.55;;;12.70;1.00;;;;;;5031317;28;20343;-73
2023/04/12 12:30:24;;;;;;;5.05;1.60;;;12.60;1.00;;;;;;5030428;28;20031;-74
2023/04/12 12:32:51;;;;;;;4.68;2.03;;;12.60;1.00;;;;;;5030717;28;20021;-73
2023/04/12 12:35:18;;;;;;;7.03;2.63;;;12.70;1.00;;;;;;5030189;28;20040;-74
2023/04/12 12:37:49;;;;;;;4.93;1.90;;;12.90;1.00;;;;;;5028256;28;20359;-73
2023/04/12 12:40:16;;;;;;;3.25;2.08;;;13.00;1.00;;;;;;5024510;28;20049;-73
2023/04/12 12:42:50;;;;;;;4.10;1.70;;;13.00;1.00;;;;;;5031303;28;20048;-73
2023/04/12 12:45:19;;;;;;;3.70;1.65;;;12.90;1.00;;;;;;5030496;28;20040;-73
2023/04/12 12:47:49;;;;;;;3.55;1.95;;;12.90;1.00;;;;;;5030851;28;20045;-73
2023/04/12 12:50:23;;;;;;;3.83;2.00;;;12.90;1.00;;;;;;5029904;28;20037;-74
2023/04/12 12:52:50;;;;;;;3.30;1.67;;;12.80;1.00;;;;;;5026582;28;20497;-75
2023/04/12 12:55:17;;;;;;;4.20;1.80;;;12.50;1.00;;;;;;5024245;28;20025;-77
2023/04/12 12:57:45;;;;;;;3.50;1.52;;;12.30;1.00;;;;;;5027441;28;20048;-74
2023/04/12 13:00:13;;;;;;;3.20;1.77;;;12.20;1.00;;;;;;5031651;28;20037;-75
2023/04/12 13:02:42;;;;;;;6.63;2.30;;;12.20;1.00;;;;;;5028277;28;20038;-75
2023/04/12 13:05:10;;;;;;;5.45;2.03;;;12.30;1.00;;;;;;5027972;28;20058;-75